createdAt,value
2022-08-19T06:46:10.090Z,997.16
2022-08-19T06:47:14.562Z,997.16
2022-08-19T06:48:11.643Z,997.17
2022-08-19T06:49:11.061Z,997.17
2022-08-19T06:50:10.637Z,997.19
2022-08-19T06:51:10.800Z,997.21
2022-08-19T06:52:10.600Z,997.22
2022-08-19T06:53:11.590Z,997.23
2022-08-19T06:54:19.441Z,997.24
2022-08-19T06:55:10.511Z,997.26
2022-08-19T06:56:10.563Z,997.28
2022-08-19T06:57:11.661Z,997.30
2022-08-19T06:58:11.530Z,997.30
2022-08-19T06:59:10.502Z,997.29
2022-08-19T07:00:12.800Z,997.29
2022-08-19T07:01:10.487Z,997.29
2022-08-19T07:02:10.600Z,997.30
2022-08-19T07:03:13.115Z,997.30
2022-08-19T07:04:12.176Z,997.31
2022-08-19T07:05:10.423Z,997.33
2022-08-19T07:06:21.323Z,997.36
2022-08-19T07:07:19.917Z,997.39
2022-08-19T07:08:10.478Z,997.41
2022-08-19T07:09:10.468Z,997.42
2022-08-19T07:10:10.452Z,997.43
2022-08-19T07:11:10.801Z,997.43
2022-08-19T07:12:10.514Z,997.42
2022-08-19T07:13:10.750Z,997.41
2022-08-19T07:14:19.139Z,997.40
2022-08-19T07:15:10.346Z,997.41
2022-08-19T07:16:10.316Z,997.39
2022-08-19T07:17:10.357Z,997.38
2022-08-19T07:18:11.609Z,997.38
2022-08-19T07:19:15.745Z,997.38
2022-08-19T07:20:10.443Z,997.37
2022-08-19T07:21:10.292Z,997.37
2022-08-19T07:22:13.081Z,997.37
2022-08-19T07:23:10.211Z,997.36
2022-08-19T07:24:10.155Z,997.35
2022-08-19T07:25:10.300Z,997.34
2022-08-19T07:26:10.302Z,997.34
2022-08-19T07:27:10.413Z,997.34
2022-08-19T07:28:18.953Z,997.34
2022-08-19T07:29:10.215Z,997.35
2022-08-19T07:30:11.635Z,997.36
2022-08-19T07:31:10.169Z,997.37
2022-08-19T07:32:11.666Z,997.38
2022-08-19T07:33:10.174Z,997.40
2022-08-19T07:34:10.157Z,997.40
2022-08-19T07:35:10.102Z,997.39
2022-08-19T07:36:10.811Z,997.38
2022-08-19T07:37:10.109Z,997.36
2022-08-19T07:38:09.995Z,997.35
2022-08-19T07:39:10.214Z,997.34
2022-08-19T07:40:10.042Z,997.33
2022-08-19T07:41:10.002Z,997.33
2022-08-19T07:42:10.027Z,997.34
2022-08-19T07:43:13.916Z,997.34
2022-08-19T07:44:10.036Z,997.36
2022-08-19T07:45:09.988Z,997.36
2022-08-19T07:47:47.435Z,997.39
2022-08-19T07:48:10.451Z,997.41
2022-08-19T07:49:10.013Z,997.43
2022-08-19T07:50:10.540Z,997.44
2022-08-19T07:51:10.128Z,997.46
2022-08-19T07:52:09.841Z,997.48
2022-08-19T07:53:11.620Z,997.50
2022-08-19T07:54:10.189Z,997.53
2022-08-19T07:55:13.592Z,997.54
2022-08-19T07:56:09.922Z,997.56
2022-08-19T07:57:09.836Z,997.57
2022-08-19T07:58:09.879Z,997.57
2022-08-19T07:59:11.075Z,997.57
2022-08-19T08:00:09.857Z,997.59
2022-08-19T08:01:09.821Z,997.58
2022-08-19T08:02:11.704Z,997.58
2022-08-19T08:04:02.580Z,997.56
2022-08-19T08:04:11.742Z,997.57
2022-08-19T08:05:10.238Z,997.57
2022-08-19T08:06:11.636Z,997.57
2022-08-19T08:07:09.973Z,997.57
2022-08-19T08:08:10.071Z,997.56
2022-08-19T08:09:12.057Z,997.56
2022-08-19T08:10:21.217Z,997.55
2022-08-19T08:11:10.129Z,997.55
2022-08-19T08:12:33.091Z,997.56
2022-08-19T08:13:11.107Z,997.56
2022-08-19T08:14:29.613Z,997.56
2022-08-19T08:15:12.490Z,997.56
2022-08-19T08:16:14.212Z,997.56
2022-08-19T08:17:11.242Z,997.60
2022-08-19T08:18:13.839Z,997.60
2022-08-19T08:19:20.430Z,997.59
2022-08-19T08:20:09.537Z,997.59
2022-08-19T08:21:09.614Z,997.58
2022-08-19T08:22:09.715Z,997.56
2022-08-19T08:23:09.498Z,997.55
2022-08-19T08:24:09.681Z,997.53
2022-08-19T08:25:09.704Z,997.51
2022-08-19T08:26:09.589Z,997.47
2022-08-19T08:27:11.363Z,997.46
2022-08-19T08:28:11.413Z,997.43
2022-08-19T08:29:12.743Z,997.41
2022-08-19T08:30:09.705Z,997.38
2022-08-19T08:31:09.878Z,997.37
2022-08-19T08:32:14.162Z,997.38
2022-08-19T08:33:09.534Z,997.38
2022-08-19T08:34:09.909Z,997.37
2022-08-19T08:35:09.542Z,997.38
2022-08-19T08:36:09.459Z,997.39
2022-08-19T08:37:09.666Z,997.40
2022-08-19T08:38:09.555Z,997.37
2022-08-19T08:39:09.468Z,997.36
2022-08-19T08:40:13.199Z,997.37
2022-08-19T08:41:09.449Z,997.36
2022-08-19T08:42:16.861Z,997.34
2022-08-19T08:43:10.972Z,997.34
2022-08-19T08:44:11.770Z,997.37
2022-08-19T08:45:33.472Z,997.37
2022-08-19T08:46:10.126Z,997.38
2022-08-19T08:47:09.360Z,997.42
2022-08-19T08:48:24.037Z,997.44
2022-08-19T08:49:09.622Z,997.45
2022-08-19T08:50:09.307Z,997.45
2022-08-19T08:51:09.350Z,997.44
2022-08-19T08:52:09.322Z,997.45
2022-08-19T08:53:09.308Z,997.45
2022-08-19T08:54:09.857Z,997.42
2022-08-19T08:55:10.500Z,997.42
2022-08-19T08:56:18.379Z,997.46
2022-08-19T09:09:56.177Z,997.51
2022-08-19T09:10:55.863Z,997.51
2022-08-19T09:11:55.636Z,997.52
2022-08-19T09:12:55.755Z,997.52
2022-08-19T09:13:55.795Z,997.51
2022-08-19T09:14:55.943Z,997.49
2022-08-19T09:15:55.776Z,997.51
2022-08-19T09:35:30.747Z,997.52
2022-08-19T09:36:34.680Z,997.58
2022-08-19T09:37:31.668Z,997.60
2022-08-19T09:38:32.015Z,997.63
2022-08-19T09:39:35.877Z,997.60
2022-08-19T09:40:34.397Z,997.61
2022-08-19T09:41:31.641Z,997.60
2022-08-19T09:42:35.306Z,997.60
2022-08-19T09:43:33.771Z,997.58
2022-08-19T09:44:31.619Z,997.61
2022-08-19T09:45:31.715Z,997.55
2022-08-19T09:46:32.393Z,997.59
2022-08-19T09:47:31.596Z,997.65
2022-08-19T09:48:31.549Z,997.60
2022-08-19T09:49:31.610Z,997.62
2022-08-19T09:50:38.886Z,997.61
2022-08-19T09:51:31.537Z,997.57
2022-08-19T09:52:32.705Z,997.55
2022-08-19T09:53:31.377Z,997.55
2022-08-19T09:54:31.444Z,997.53
2022-08-19T09:55:32.765Z,997.55
2022-08-19T09:56:31.811Z,997.53
2022-08-19T09:57:31.537Z,997.58
2022-08-19T09:58:31.573Z,997.52
2022-08-19T09:59:31.508Z,997.51
2022-08-19T10:00:31.389Z,997.56
2022-08-19T10:01:31.488Z,997.57
2022-08-19T10:02:31.536Z,997.55
2022-08-19T10:03:31.379Z,997.56
2022-08-19T10:04:31.392Z,997.52
2022-08-19T10:05:31.337Z,997.51
